sensor_id;sensor_type;location;lat;lon;timestamp;P1;durP1;ratioP1;P2;durP2;ratioP2
20040;SDS011;10181;48.072;9.884;2023-04-30T00:00:50;23.40;;;22.37;;
20040;SDS011;10181;48.072;9.884;2023-04-30T00:03:15;27.60;;;26.30;;
20040;SDS011;10181;48.072;9.884;2023-04-30T00:05:41;28.47;;;27.17;;
20040;SDS011;10181;48.072;9.884;2023-04-30T00:08:07;26.37;;;25.00;;
20040;SDS011;10181;48.072;9.884;2023-04-30T00:10:32;22.57;;;21.47;;
20040;SDS011;10181;48.072;9.884;2023-04-30T00:12:58;22.17;;;21.03;;
20040;SDS011;10181;48.072;9.884;2023-04-30T00:15:23;26.67;;;25.30;;
20040;SDS011;10181;48.072;9.884;2023-04-30T00:17:49;29.97;;;28.47;;
20040;SDS011;10181;48.072;9.884;2023-04-30T00:20:15;27.47;;;26.10;;
20040;SDS011;10181;48.072;9.884;2023-04-30T00:22:41;32.17;;;30.60;;
20040;SDS011;10181;48.072;9.884;2023-04-30T00:25:06;29.30;;;27.97;;
20040;SDS011;10181;48.072;9.884;2023-04-30T00:27:33;24.80;;;23.57;;
20040;SDS011;10181;48.072;9.884;2023-04-30T00:29:58;17.53;;;16.73;;
20040;SDS011;10181;48.072;9.884;2023-04-30T00:32:24;12.23;;;11.60;;
20040;SDS011;10181;48.072;9.884;2023-04-30T00:34:50;10.03;;;9.43;;
20040;SDS011;10181;48.072;9.884;2023-04-30T00:37:15;8.60;;;8.00;;
20040;SDS011;10181;48.072;9.884;2023-04-30T00:39:41;8.60;;;8.10;;
20040;SDS011;10181;48.072;9.884;2023-04-30T00:42:06;8.10;;;7.60;;
20040;SDS011;10181;48.072;9.884;2023-04-30T00:44:32;7.53;;;7.03;;
20040;SDS011;10181;48.072;9.884;2023-04-30T00:46:58;7.20;;;6.70;;
20040;SDS011;10181;48.072;9.884;2023-04-30T00:49:23;5.60;;;5.20;;
20040;SDS011;10181;48.072;9.884;2023-04-30T00:51:49;7.03;;;6.53;;
20040;SDS011;10181;48.072;9.884;2023-04-30T00:54:16;6.63;;;6.10;;
20040;SDS011;10181;48.072;9.884;2023-04-30T00:56:44;5.77;;;5.27;;
20040;SDS011;10181;48.072;9.884;2023-04-30T00:59:10;5.07;;;4.73;;
20040;SDS011;10181;48.072;9.884;2023-04-30T01:01:37;5.63;;;5.13;;
20040;SDS011;10181;48.072;9.884;2023-04-30T01:04:03;5.20;;;4.77;;
20040;SDS011;10181;48.072;9.884;2023-04-30T01:06:29;5.57;;;5.07;;
20040;SDS011;10181;48.072;9.884;2023-04-30T01:08:56;4.40;;;4.10;;
20040;SDS011;10181;48.072;9.884;2023-04-30T01:11:33;6.00;;;5.53;;
20040;SDS011;10181;48.072;9.884;2023-04-30T01:27:55;7.17;;;6.57;;
20040;SDS011;10181;48.072;9.884;2023-04-30T01:30:25;6.00;;;5.50;;
20040;SDS011;10181;48.072;9.884;2023-04-30T01:32:52;7.70;;;7.10;;
20040;SDS011;10181;48.072;9.884;2023-04-30T01:35:18;6.83;;;6.33;;
20040;SDS011;10181;48.072;9.884;2023-04-30T01:37:58;9.43;;;7.53;;
20040;SDS011;10181;48.072;9.884;2023-04-30T01:43:11;7.90;;;7.33;;
20040;SDS011;10181;48.072;9.884;2023-04-30T01:50:50;9.07;;;8.47;;
20040;SDS011;10181;48.072;9.884;2023-04-30T01:53:20;9.40;;;8.80;;
20040;SDS011;10181;48.072;9.884;2023-04-30T01:56:01;9.57;;;8.70;;
20040;SDS011;10181;48.072;9.884;2023-04-30T01:58:28;9.37;;;8.63;;
20040;SDS011;10181;48.072;9.884;2023-04-30T02:00:54;9.50;;;8.80;;
20040;SDS011;10181;48.072;9.884;2023-04-30T02:03:20;9.87;;;9.17;;
20040;SDS011;10181;48.072;9.884;2023-04-30T02:05:46;9.30;;;8.60;;
20040;SDS011;10181;48.072;9.884;2023-04-30T02:08:12;9.23;;;8.63;;
20040;SDS011;10181;48.072;9.884;2023-04-30T02:10:38;8.50;;;8.00;;
20040;SDS011;10181;48.072;9.884;2023-04-30T02:13:03;9.10;;;8.50;;
20040;SDS011;10181;48.072;9.884;2023-04-30T02:15:29;8.53;;;7.93;;
20040;SDS011;10181;48.072;9.884;2023-04-30T02:17:55;8.63;;;8.13;;
20040;SDS011;10181;48.072;9.884;2023-04-30T02:20:20;7.43;;;6.93;;
20040;SDS011;10181;48.072;9.884;2023-04-30T02:22:46;8.07;;;7.40;;
20040;SDS011;10181;48.072;9.884;2023-04-30T02:25:12;7.30;;;6.73;;
20040;SDS011;10181;48.072;9.884;2023-04-30T02:27:38;8.70;;;6.37;;
20040;SDS011;10181;48.072;9.884;2023-04-30T02:30:04;6.10;;;5.60;;
20040;SDS011;10181;48.072;9.884;2023-04-30T02:32:30;7.00;;;6.40;;
20040;SDS011;10181;48.072;9.884;2023-04-30T02:34:56;7.07;;;6.40;;
20040;SDS011;10181;48.072;9.884;2023-04-30T02:37:21;6.10;;;5.63;;
20040;SDS011;10181;48.072;9.884;2023-04-30T02:39:47;6.17;;;5.77;;
20040;SDS011;10181;48.072;9.884;2023-04-30T02:42:13;7.47;;;6.97;;
20040;SDS011;10181;48.072;9.884;2023-04-30T02:44:39;8.20;;;7.70;;
20040;SDS011;10181;48.072;9.884;2023-04-30T02:47:05;10.70;;;10.10;;
20040;SDS011;10181;48.072;9.884;2023-04-30T02:49:30;12.83;;;12.23;;
20040;SDS011;10181;48.072;9.884;2023-04-30T02:51:56;16.17;;;15.27;;
20040;SDS011;10181;48.072;9.884;2023-04-30T02:54:21;19.73;;;18.73;;
20040;SDS011;10181;48.072;9.884;2023-04-30T02:56:47;24.20;;;22.80;;
20040;SDS011;10181;48.072;9.884;2023-04-30T02:59:13;28.90;;;27.40;;
20040;SDS011;10181;48.072;9.884;2023-04-30T03:01:38;31.27;;;29.70;;
20040;SDS011;10181;48.072;9.884;2023-04-30T03:04:04;37.23;;;35.43;;
20040;SDS011;10181;48.072;9.884;2023-04-30T03:06:30;37.70;;;35.90;;
20040;SDS011;10181;48.072;9.884;2023-04-30T03:08:57;37.27;;;35.57;;
20040;SDS011;10181;48.072;9.884;2023-04-30T03:11:23;34.47;;;32.87;;
20040;SDS011;10181;48.072;9.884;2023-04-30T03:13:49;32.67;;;30.93;;
20040;SDS011;10181;48.072;9.884;2023-04-30T03:16:15;28.10;;;26.60;;
20040;SDS011;10181;48.072;9.884;2023-04-30T03:18:42;14.93;;;13.93;;
20040;SDS011;10181;48.072;9.884;2023-04-30T03:21:08;15.77;;;14.87;;
20040;SDS011;10181;48.072;9.884;2023-04-30T03:23:34;19.43;;;18.50;;
20040;SDS011;10181;48.072;9.884;2023-04-30T03:25:59;15.93;;;14.87;;
20040;SDS011;10181;48.072;9.884;2023-04-30T03:28:25;12.77;;;12.07;;
20040;SDS011;10181;48.072;9.884;2023-04-30T03:30:51;9.57;;;8.67;;
20040;SDS011;10181;48.072;9.884;2023-04-30T03:33:16;8.07;;;7.47;;
20040;SDS011;10181;48.072;9.884;2023-04-30T03:35:42;7.43;;;6.67;;
20040;SDS011;10181;48.072;9.884;2023-04-30T03:38:08;7.83;;;7.23;;
20040;SDS011;10181;48.072;9.884;2023-04-30T03:40:33;7.50;;;6.90;;
20040;SDS011;10181;48.072;9.884;2023-04-30T03:42:59;6.73;;;6.13;;
20040;SDS011;10181;48.072;9.884;2023-04-30T03:45:25;8.00;;;5.83;;
20040;SDS011;10181;48.072;9.884;2023-04-30T03:47:50;6.10;;;5.60;;
20040;SDS011;10181;48.072;9.884;2023-04-30T03:50:16;5.83;;;5.27;;
20040;SDS011;10181;48.072;9.884;2023-04-30T03:52:43;6.43;;;5.93;;
20040;SDS011;10181;48.072;9.884;2023-04-30T03:55:09;7.07;;;6.37;;
20040;SDS011;10181;48.072;9.884;2023-04-30T03:57:34;7.03;;;6.33;;
20040;SDS011;10181;48.072;9.884;2023-04-30T04:00:00;7.73;;;7.13;;
20040;SDS011;10181;48.072;9.884;2023-04-30T04:02:31;8.50;;;7.90;;
20040;SDS011;10181;48.072;9.884;2023-04-30T04:04:57;9.83;;;9.17;;
20040;SDS011;10181;48.072;9.884;2023-04-30T04:07:23;10.93;;;10.07;;
20040;SDS011;10181;48.072;9.884;2023-04-30T04:09:48;12.20;;;11.33;;
20040;SDS011;10181;48.072;9.884;2023-04-30T04:12:14;12.10;;;11.30;;
20040;SDS011;10181;48.072;9.884;2023-04-30T04:14:39;12.33;;;11.53;;
20040;SDS011;10181;48.072;9.884;2023-04-30T04:17:05;13.00;;;12.07;;
20040;SDS011;10181;48.072;9.884;2023-04-30T04:19:31;10.80;;;10.00;;
20040;SDS011;10181;48.072;9.884;2023-04-30T04:21:56;10.33;;;9.53;;
20040;SDS011;10181;48.072;9.884;2023-04-30T04:24:25;10.87;;;9.77;;
20040;SDS011;10181;48.072;9.884;2023-04-30T04:26:51;8.17;;;7.57;;
20040;SDS011;10181;48.072;9.884;2023-04-30T04:29:17;8.43;;;7.63;;
20040;SDS011;10181;48.072;9.884;2023-04-30T04:31:43;7.77;;;7.17;;
20040;SDS011;10181;48.072;9.884;2023-04-30T04:34:09;8.87;;;7.47;;
20040;SDS011;10181;48.072;9.884;2023-04-30T04:36:34;9.53;;;8.73;;
20040;SDS011;10181;48.072;9.884;2023-04-30T04:39:00;10.80;;;10.00;;
20040;SDS011;10181;48.072;9.884;2023-04-30T04:41:30;13.07;;;12.03;;
20040;SDS011;10181;48.072;9.884;2023-04-30T04:44:02;16.60;;;15.60;;
20040;SDS011;10181;48.072;9.884;2023-04-30T04:46:29;20.60;;;19.47;;
20040;SDS011;10181;48.072;9.884;2023-04-30T04:48:55;23.23;;;21.97;;
20040;SDS011;10181;48.072;9.884;2023-04-30T04:51:21;29.80;;;28.23;;
20040;SDS011;10181;48.072;9.884;2023-04-30T04:53:47;33.07;;;31.17;;
20040;SDS011;10181;48.072;9.884;2023-04-30T04:56:13;36.63;;;34.83;;
20040;SDS011;10181;48.072;9.884;2023-04-30T04:58:39;45.33;;;43.13;;
20040;SDS011;10181;48.072;9.884;2023-04-30T05:01:06;42.97;;;40.97;;
20040;SDS011;10181;48.072;9.884;2023-04-30T05:03:34;47.73;;;45.43;;
20040;SDS011;10181;48.072;9.884;2023-04-30T05:06:03;49.43;;;47.13;;
20040;SDS011;10181;48.072;9.884;2023-04-30T05:08:29;50.40;;;48.10;;
20040;SDS011;10181;48.072;9.884;2023-04-30T05:10:54;51.17;;;48.77;;
20040;SDS011;10181;48.072;9.884;2023-04-30T05:13:20;53.33;;;50.67;;
20040;SDS011;10181;48.072;9.884;2023-04-30T05:15:46;53.00;;;50.40;;
20040;SDS011;10181;48.072;9.884;2023-04-30T05:18:16;57.67;;;54.80;;
20040;SDS011;10181;48.072;9.884;2023-04-30T05:20:42;54.03;;;51.53;;
20040;SDS011;10181;48.072;9.884;2023-04-30T05:23:08;53.03;;;50.63;;
20040;SDS011;10181;48.072;9.884;2023-04-30T05:25:37;52.90;;;50.40;;
20040;SDS011;10181;48.072;9.884;2023-04-30T05:28:02;49.67;;;47.27;;
20040;SDS011;10181;48.072;9.884;2023-04-30T05:30:29;51.73;;;49.17;;
20040;SDS011;10181;48.072;9.884;2023-04-30T05:32:54;51.37;;;48.60;;
20040;SDS011;10181;48.072;9.884;2023-04-30T05:35:21;50.50;;;47.93;;
20040;SDS011;10181;48.072;9.884;2023-04-30T05:37:47;51.13;;;48.70;;
20040;SDS011;10181;48.072;9.884;2023-04-30T05:40:13;51.87;;;49.33;;
20040;SDS011;10181;48.072;9.884;2023-04-30T05:42:39;52.83;;;50.37;;
20040;SDS011;10181;48.072;9.884;2023-04-30T05:45:07;41.00;;;38.97;;
20040;SDS011;10181;48.072;9.884;2023-04-30T05:47:33;42.43;;;40.07;;
20040;SDS011;10181;48.072;9.884;2023-04-30T05:49:59;29.13;;;27.57;;
20040;SDS011;10181;48.072;9.884;2023-04-30T05:52:25;24.60;;;23.20;;
20040;SDS011;10181;48.072;9.884;2023-04-30T05:54:50;14.10;;;13.10;;
20040;SDS011;10181;48.072;9.884;2023-04-30T05:57:16;10.00;;;9.03;;
20040;SDS011;10181;48.072;9.884;2023-04-30T05:59:41;7.93;;;7.20;;
20040;SDS011;10181;48.072;9.884;2023-04-30T06:02:07;7.30;;;6.10;;
20040;SDS011;10181;48.072;9.884;2023-04-30T06:04:33;7.00;;;6.30;;
20040;SDS011;10181;48.072;9.884;2023-04-30T06:06:59;7.33;;;6.63;;
20040;SDS011;10181;48.072;9.884;2023-04-30T06:09:25;7.03;;;6.37;;
20040;SDS011;10181;48.072;9.884;2023-04-30T06:11:53;9.10;;;6.63;;
20040;SDS011;10181;48.072;9.884;2023-04-30T06:14:19;9.17;;;6.53;;
20040;SDS011;10181;48.072;9.884;2023-04-30T06:16:46;7.07;;;6.47;;
20040;SDS011;10181;48.072;9.884;2023-04-30T06:19:12;12.03;;;10.93;;
20040;SDS011;10181;48.072;9.884;2023-04-30T06:21:38;19.13;;;17.93;;
20040;SDS011;10181;48.072;9.884;2023-04-30T06:24:05;19.83;;;18.63;;
20040;SDS011;10181;48.072;9.884;2023-04-30T06:26:31;23.03;;;21.70;;
20040;SDS011;10181;48.072;9.884;2023-04-30T06:28:56;16.80;;;15.70;;
20040;SDS011;10181;48.072;9.884;2023-04-30T06:31:22;12.80;;;11.93;;
20040;SDS011;10181;48.072;9.884;2023-04-30T06:33:48;26.73;;;25.43;;
20040;SDS011;10181;48.072;9.884;2023-04-30T06:36:14;20.50;;;19.17;;
20040;SDS011;10181;48.072;9.884;2023-04-30T06:38:40;8.23;;;7.53;;
20040;SDS011;10181;48.072;9.884;2023-04-30T06:41:06;8.47;;;7.77;;
20040;SDS011;10181;48.072;9.884;2023-04-30T06:43:32;11.63;;;10.80;;
20040;SDS011;10181;48.072;9.884;2023-04-30T06:45:58;17.83;;;16.80;;
20040;SDS011;10181;48.072;9.884;2023-04-30T06:48:23;10.37;;;9.57;;
20040;SDS011;10181;48.072;9.884;2023-04-30T06:50:49;11.17;;;10.07;;
20040;SDS011;10181;48.072;9.884;2023-04-30T06:53:15;9.47;;;8.57;;
20040;SDS011;10181;48.072;9.884;2023-04-30T06:55:41;9.73;;;9.03;;
20040;SDS011;10181;48.072;9.884;2023-04-30T06:58:07;12.77;;;11.53;;
20040;SDS011;10181;48.072;9.884;2023-04-30T07:00:33;10.57;;;9.80;;
20040;SDS011;10181;48.072;9.884;2023-04-30T07:02:59;12.27;;;11.27;;
20040;SDS011;10181;48.072;9.884;2023-04-30T07:05:26;14.03;;;13.13;;
20040;SDS011;10181;48.072;9.884;2023-04-30T07:07:52;10.57;;;9.77;;
20040;SDS011;10181;48.072;9.884;2023-04-30T07:10:18;14.10;;;13.20;;
20040;SDS011;10181;48.072;9.884;2023-04-30T07:12:44;14.20;;;13.37;;
20040;SDS011;10181;48.072;9.884;2023-04-30T07:15:09;14.63;;;13.53;;
20040;SDS011;10181;48.072;9.884;2023-04-30T07:17:35;14.33;;;13.43;;
20040;SDS011;10181;48.072;9.884;2023-04-30T07:20:02;15.60;;;14.50;;
20040;SDS011;10181;48.072;9.884;2023-04-30T07:22:32;7.60;;;7.00;;
20040;SDS011;10181;48.072;9.884;2023-04-30T07:24:57;8.73;;;7.93;;
20040;SDS011;10181;48.072;9.884;2023-04-30T07:27:24;10.03;;;9.27;;
20040;SDS011;10181;48.072;9.884;2023-04-30T07:29:50;9.97;;;9.23;;
20040;SDS011;10181;48.072;9.884;2023-04-30T07:32:16;9.43;;;8.73;;
20040;SDS011;10181;48.072;9.884;2023-04-30T07:34:41;9.47;;;8.57;;
20040;SDS011;10181;48.072;9.884;2023-04-30T07:37:07;11.87;;;8.70;;
20040;SDS011;10181;48.072;9.884;2023-04-30T07:39:33;9.17;;;8.53;;
20040;SDS011;10181;48.072;9.884;2023-04-30T07:42:00;9.20;;;8.50;;
20040;SDS011;10181;48.072;9.884;2023-04-30T07:44:26;7.83;;;7.33;;
20040;SDS011;10181;48.072;9.884;2023-04-30T07:46:52;8.43;;;7.83;;
20040;SDS011;10181;48.072;9.884;2023-04-30T07:49:18;9.23;;;8.43;;
20040;SDS011;10181;48.072;9.884;2023-04-30T07:51:44;8.90;;;8.30;;
20040;SDS011;10181;48.072;9.884;2023-04-30T07:54:10;8.90;;;8.30;;
20040;SDS011;10181;48.072;9.884;2023-04-30T07:56:36;9.23;;;8.63;;
20040;SDS011;10181;48.072;9.884;2023-04-30T07:59:02;10.23;;;8.80;;
20040;SDS011;10181;48.072;9.884;2023-04-30T08:01:27;10.20;;;9.53;;
20040;SDS011;10181;48.072;9.884;2023-04-30T08:03:53;28.67;;;27.23;;
20040;SDS011;10181;48.072;9.884;2023-04-30T08:06:18;36.90;;;35.03;;
20040;SDS011;10181;48.072;9.884;2023-04-30T08:08:44;21.37;;;20.27;;
20040;SDS011;10181;48.072;9.884;2023-04-30T08:11:10;23.10;;;21.90;;
20040;SDS011;10181;48.072;9.884;2023-04-30T08:13:36;9.97;;;9.20;;
20040;SDS011;10181;48.072;9.884;2023-04-30T08:16:02;8.37;;;7.87;;
20040;SDS011;10181;48.072;9.884;2023-04-30T08:18:28;9.37;;;8.47;;
20040;SDS011;10181;48.072;9.884;2023-04-30T08:20:53;10.70;;;10.10;;
20040;SDS011;10181;48.072;9.884;2023-04-30T08:23:19;8.10;;;7.50;;
20040;SDS011;10181;48.072;9.884;2023-04-30T08:25:45;8.83;;;8.33;;
20040;SDS011;10181;48.072;9.884;2023-04-30T08:28:11;8.77;;;8.27;;
20040;SDS011;10181;48.072;9.884;2023-04-30T08:30:36;9.10;;;8.50;;
20040;SDS011;10181;48.072;9.884;2023-04-30T08:33:02;9.87;;;9.27;;
20040;SDS011;10181;48.072;9.884;2023-04-30T08:35:28;8.53;;;7.93;;
20040;SDS011;10181;48.072;9.884;2023-04-30T08:37:54;7.90;;;7.40;;
20040;SDS011;10181;48.072;9.884;2023-04-30T08:40:20;7.97;;;7.47;;
20040;SDS011;10181;48.072;9.884;2023-04-30T08:42:49;8.10;;;7.50;;
20040;SDS011;10181;48.072;9.884;2023-04-30T08:45:37;6.73;;;6.33;;
20040;SDS011;10181;48.072;9.884;2023-04-30T08:48:03;7.93;;;7.40;;
20040;SDS011;10181;48.072;9.884;2023-04-30T08:50:34;7.47;;;6.97;;
20040;SDS011;10181;48.072;9.884;2023-04-30T08:53:00;6.00;;;5.60;;
20040;SDS011;10181;48.072;9.884;2023-04-30T08:55:26;7.13;;;6.63;;
20040;SDS011;10181;48.072;9.884;2023-04-30T08:57:52;6.50;;;6.07;;
20040;SDS011;10181;48.072;9.884;2023-04-30T09:00:18;7.10;;;6.63;;
20040;SDS011;10181;48.072;9.884;2023-04-30T09:02:44;6.77;;;6.33;;
20040;SDS011;10181;48.072;9.884;2023-04-30T09:05:13;6.97;;;6.57;;
20040;SDS011;10181;48.072;9.884;2023-04-30T09:07:39;6.93;;;6.43;;
20040;SDS011;10181;48.072;9.884;2023-04-30T09:10:16;6.23;;;5.73;;
20040;SDS011;10181;48.072;9.884;2023-04-30T09:13:00;5.70;;;5.30;;
20040;SDS011;10181;48.072;9.884;2023-04-30T09:15:31;5.70;;;5.30;;
20040;SDS011;10181;48.072;9.884;2023-04-30T09:18:11;6.83;;;6.53;;
20040;SDS011;10181;48.072;9.884;2023-04-30T09:23:20;6.23;;;5.80;;
20040;SDS011;10181;48.072;9.884;2023-04-30T09:25:46;6.70;;;6.10;;
20040;SDS011;10181;48.072;9.884;2023-04-30T09:28:13;9.20;;;8.60;;
20040;SDS011;10181;48.072;9.884;2023-04-30T09:30:39;8.37;;;7.87;;
20040;SDS011;10181;48.072;9.884;2023-04-30T09:33:05;8.30;;;7.83;;
20040;SDS011;10181;48.072;9.884;2023-04-30T09:35:32;8.90;;;8.33;;
20040;SDS011;10181;48.072;9.884;2023-04-30T09:37:59;7.57;;;7.17;;
20040;SDS011;10181;48.072;9.884;2023-04-30T09:40:36;4.63;;;4.33;;
20040;SDS011;10181;48.072;9.884;2023-04-30T09:43:06;6.03;;;5.73;;
20040;SDS011;10181;48.072;9.884;2023-04-30T09:45:43;4.60;;;4.37;;
20040;SDS011;10181;48.072;9.884;2023-04-30T09:48:20;9.03;;;8.63;;
20040;SDS011;10181;48.072;9.884;2023-04-30T09:50:47;7.60;;;7.20;;
20040;SDS011;10181;48.072;9.884;2023-04-30T09:53:13;6.27;;;5.83;;
20040;SDS011;10181;48.072;9.884;2023-04-30T09:55:42;6.97;;;6.57;;
20040;SDS011;10181;48.072;9.884;2023-04-30T09:58:10;9.50;;;9.10;;
20040;SDS011;10181;48.072;9.884;2023-04-30T10:00:36;8.27;;;7.87;;
20040;SDS011;10181;48.072;9.884;2023-04-30T10:03:07;9.70;;;9.30;;
20040;SDS011;10181;48.072;9.884;2023-04-30T10:05:44;8.17;;;7.67;;
20040;SDS011;10181;48.072;9.884;2023-04-30T10:08:22;7.47;;;7.17;;
20040;SDS011;10181;48.072;9.884;2023-04-30T10:11:03;20.97;;;20.13;;
20040;SDS011;10181;48.072;9.884;2023-04-30T10:13:30;13.37;;;12.83;;
20040;SDS011;10181;48.072;9.884;2023-04-30T10:16:06;49.43;;;47.57;;
20040;SDS011;10181;48.072;9.884;2023-04-30T10:18:38;30.00;;;28.80;;
20040;SDS011;10181;48.072;9.884;2023-04-30T10:21:07;33.87;;;32.43;;
20040;SDS011;10181;48.072;9.884;2023-04-30T10:23:38;34.63;;;33.33;;
20040;SDS011;10181;48.072;9.884;2023-04-30T10:26:07;32.90;;;31.67;;
20040;SDS011;10181;48.072;9.884;2023-04-30T10:28:36;25.67;;;24.67;;
20040;SDS011;10181;48.072;9.884;2023-04-30T10:31:02;38.83;;;37.27;;
20040;SDS011;10181;48.072;9.884;2023-04-30T10:33:41;26.70;;;25.63;;
20040;SDS011;10181;48.072;9.884;2023-04-30T10:36:45;12.07;;;11.63;;
20040;SDS011;10181;48.072;9.884;2023-04-30T10:39:22;24.83;;;23.93;;
20040;SDS011;10181;48.072;9.884;2023-04-30T10:41:51;24.17;;;23.20;;
20040;SDS011;10181;48.072;9.884;2023-04-30T10:44:30;40.47;;;38.93;;
20040;SDS011;10181;48.072;9.884;2023-04-30T10:47:00;26.90;;;25.90;;
20040;SDS011;10181;48.072;9.884;2023-04-30T10:49:26;9.50;;;8.83;;
20040;SDS011;10181;48.072;9.884;2023-04-30T10:51:52;17.23;;;16.57;;
20040;SDS011;10181;48.072;9.884;2023-04-30T10:54:26;16.07;;;15.40;;
20040;SDS011;10181;48.072;9.884;2023-04-30T10:56:53;16.03;;;15.37;;
20040;SDS011;10181;48.072;9.884;2023-04-30T10:59:33;11.03;;;10.63;;
20040;SDS011;10181;48.072;9.884;2023-04-30T11:02:00;11.67;;;11.07;;
20040;SDS011;10181;48.072;9.884;2023-04-30T11:04:26;26.70;;;25.70;;
20040;SDS011;10181;48.072;9.884;2023-04-30T11:14:38;11.33;;;10.83;;
20040;SDS011;10181;48.072;9.884;2023-04-30T11:17:09;10.17;;;9.63;;
20040;SDS011;10181;48.072;9.884;2023-04-30T11:19:40;9.90;;;9.53;;
20040;SDS011;10181;48.072;9.884;2023-04-30T11:27:25;28.57;;;27.43;;
20040;SDS011;10181;48.072;9.884;2023-04-30T11:29:52;11.50;;;11.00;;
20040;SDS011;10181;48.072;9.884;2023-04-30T11:32:23;38.10;;;36.50;;
20040;SDS011;10181;48.072;9.884;2023-04-30T11:34:51;18.40;;;17.70;;
20040;SDS011;10181;48.072;9.884;2023-04-30T11:37:19;18.23;;;17.60;;
20040;SDS011;10181;48.072;9.884;2023-04-30T11:40:06;24.87;;;23.77;;
20040;SDS011;10181;48.072;9.884;2023-04-30T11:42:35;24.23;;;23.33;;
20040;SDS011;10181;48.072;9.884;2023-04-30T11:47:39;9.07;;;8.77;;
20040;SDS011;10181;48.072;9.884;2023-04-30T11:50:09;8.37;;;8.07;;
20040;SDS011;10181;48.072;9.884;2023-04-30T11:52:36;9.37;;;9.07;;
20040;SDS011;10181;48.072;9.884;2023-04-30T11:55:22;11.90;;;11.47;;
20040;SDS011;10181;48.072;9.884;2023-04-30T11:57:51;9.67;;;9.30;;
20040;SDS011;10181;48.072;9.884;2023-04-30T12:00:26;18.00;;;17.40;;
20040;SDS011;10181;48.072;9.884;2023-04-30T12:02:53;22.43;;;21.63;;
20040;SDS011;10181;48.072;9.884;2023-04-30T12:05:20;11.53;;;11.13;;
20040;SDS011;10181;48.072;9.884;2023-04-30T12:07:47;25.93;;;24.97;;
20040;SDS011;10181;48.072;9.884;2023-04-30T12:10:14;15.60;;;14.87;;
20040;SDS011;10181;48.072;9.884;2023-04-30T12:12:41;13.97;;;13.37;;
20040;SDS011;10181;48.072;9.884;2023-04-30T12:15:11;11.30;;;10.90;;
20040;SDS011;10181;48.072;9.884;2023-04-30T12:17:41;8.00;;;7.70;;
20040;SDS011;10181;48.072;9.884;2023-04-30T12:20:08;6.07;;;5.77;;
20040;SDS011;10181;48.072;9.884;2023-04-30T12:22:34;5.73;;;5.53;;
20040;SDS011;10181;48.072;9.884;2023-04-30T12:25:04;5.90;;;5.60;;
20040;SDS011;10181;48.072;9.884;2023-04-30T12:27:32;6.37;;;6.10;;
20040;SDS011;10181;48.072;9.884;2023-04-30T12:30:03;5.47;;;5.27;;
20040;SDS011;10181;48.072;9.884;2023-04-30T12:32:35;16.43;;;15.73;;
20040;SDS011;10181;48.072;9.884;2023-04-30T12:35:12;6.80;;;6.60;;
20040;SDS011;10181;48.072;9.884;2023-04-30T12:37:42;7.23;;;6.93;;
20040;SDS011;10181;48.072;9.884;2023-04-30T12:40:09;6.57;;;6.27;;
20040;SDS011;10181;48.072;9.884;2023-04-30T12:42:36;6.47;;;6.27;;
20040;SDS011;10181;48.072;9.884;2023-04-30T12:45:02;7.23;;;6.83;;
20040;SDS011;10181;48.072;9.884;2023-04-30T12:47:28;4.83;;;4.63;;
20040;SDS011;10181;48.072;9.884;2023-04-30T12:49:54;5.97;;;5.77;;
20040;SDS011;10181;48.072;9.884;2023-04-30T12:52:22;7.57;;;7.23;;
20040;SDS011;10181;48.072;9.884;2023-04-30T12:54:49;5.80;;;5.60;;
20040;SDS011;10181;48.072;9.884;2023-04-30T12:57:15;7.10;;;6.80;;
20040;SDS011;10181;48.072;9.884;2023-04-30T13:02:15;5.60;;;5.40;;
20040;SDS011;10181;48.072;9.884;2023-04-30T13:04:42;5.83;;;5.63;;
20040;SDS011;10181;48.072;9.884;2023-04-30T13:07:08;8.70;;;8.33;;
20040;SDS011;10181;48.072;9.884;2023-04-30T13:09:34;15.17;;;14.63;;
20040;SDS011;10181;48.072;9.884;2023-04-30T13:12:01;9.20;;;8.87;;
20040;SDS011;10181;48.072;9.884;2023-04-30T13:14:27;6.50;;;6.30;;
20040;SDS011;10181;48.072;9.884;2023-04-30T13:16:53;7.43;;;7.13;;
20040;SDS011;10181;48.072;9.884;2023-04-30T13:19:18;5.93;;;5.73;;
20040;SDS011;10181;48.072;9.884;2023-04-30T13:21:44;6.43;;;6.23;;
20040;SDS011;10181;48.072;9.884;2023-04-30T13:24:10;5.63;;;5.37;;
20040;SDS011;10181;48.072;9.884;2023-04-30T13:26:36;5.73;;;5.43;;
20040;SDS011;10181;48.072;9.884;2023-04-30T13:29:01;6.70;;;6.40;;
20040;SDS011;10181;48.072;9.884;2023-04-30T13:31:28;6.40;;;6.20;;
20040;SDS011;10181;48.072;9.884;2023-04-30T13:33:54;6.67;;;6.27;;
20040;SDS011;10181;48.072;9.884;2023-04-30T13:36:20;6.23;;;6.03;;
20040;SDS011;10181;48.072;9.884;2023-04-30T13:38:45;6.83;;;6.53;;
20040;SDS011;10181;48.072;9.884;2023-04-30T13:41:11;9.37;;;8.97;;
20040;SDS011;10181;48.072;9.884;2023-04-30T13:43:37;5.90;;;5.70;;
20040;SDS011;10181;48.072;9.884;2023-04-30T13:46:05;6.00;;;5.80;;
20040;SDS011;10181;48.072;9.884;2023-04-30T13:48:31;8.80;;;8.50;;
20040;SDS011;10181;48.072;9.884;2023-04-30T13:50:56;6.67;;;6.37;;
20040;SDS011;10181;48.072;9.884;2023-04-30T13:53:22;18.07;;;17.37;;
20040;SDS011;10181;48.072;9.884;2023-04-30T13:55:48;17.30;;;16.70;;
20040;SDS011;10181;48.072;9.884;2023-04-30T13:58:13;11.27;;;10.87;;
20040;SDS011;10181;48.072;9.884;2023-04-30T14:00:39;18.13;;;17.30;;
20040;SDS011;10181;48.072;9.884;2023-04-30T14:03:05;9.53;;;9.13;;
20040;SDS011;10181;48.072;9.884;2023-04-30T14:05:31;15.07;;;14.50;;
20040;SDS011;10181;48.072;9.884;2023-04-30T14:07:56;6.90;;;6.43;;
20040;SDS011;10181;48.072;9.884;2023-04-30T14:10:22;36.33;;;34.93;;
20040;SDS011;10181;48.072;9.884;2023-04-30T14:12:48;7.73;;;7.20;;
20040;SDS011;10181;48.072;9.884;2023-04-30T14:15:13;7.23;;;7.03;;
20040;SDS011;10181;48.072;9.884;2023-04-30T14:17:39;18.70;;;17.90;;
20040;SDS011;10181;48.072;9.884;2023-04-30T14:20:05;8.80;;;8.50;;
20040;SDS011;10181;48.072;9.884;2023-04-30T14:22:32;5.87;;;5.63;;
20040;SDS011;10181;48.072;9.884;2023-04-30T14:24:59;5.47;;;5.20;;
20040;SDS011;10181;48.072;9.884;2023-04-30T14:27:25;5.53;;;5.33;;
20040;SDS011;10181;48.072;9.884;2023-04-30T14:29:50;6.70;;;6.40;;
20040;SDS011;10181;48.072;9.884;2023-04-30T14:32:16;13.37;;;12.77;;
20040;SDS011;10181;48.072;9.884;2023-04-30T14:34:42;25.37;;;24.43;;
20040;SDS011;10181;48.072;9.884;2023-04-30T14:37:08;20.30;;;19.47;;
20040;SDS011;10181;48.072;9.884;2023-04-30T14:39:34;38.73;;;37.27;;
20040;SDS011;10181;48.072;9.884;2023-04-30T14:42:00;38.60;;;37.10;;
20040;SDS011;10181;48.072;9.884;2023-04-30T14:44:25;27.17;;;26.17;;
20040;SDS011;10181;48.072;9.884;2023-04-30T14:46:51;31.43;;;30.23;;
20040;SDS011;10181;48.072;9.884;2023-04-30T14:49:17;11.20;;;10.43;;
20040;SDS011;10181;48.072;9.884;2023-04-30T14:51:42;28.23;;;27.10;;
20040;SDS011;10181;48.072;9.884;2023-04-30T14:54:08;17.87;;;17.20;;
20040;SDS011;10181;48.072;9.884;2023-04-30T14:56:34;36.23;;;34.63;;
20040;SDS011;10181;48.072;9.884;2023-04-30T14:58:59;23.00;;;22.10;;
20040;SDS011;10181;48.072;9.884;2023-04-30T15:01:25;19.20;;;18.50;;
20040;SDS011;10181;48.072;9.884;2023-04-30T15:03:51;10.30;;;9.90;;
20040;SDS011;10181;48.072;9.884;2023-04-30T15:06:17;21.97;;;21.13;;
20040;SDS011;10181;48.072;9.884;2023-04-30T15:08:43;19.83;;;19.13;;
20040;SDS011;10181;48.072;9.884;2023-04-30T15:11:08;24.20;;;23.23;;
20040;SDS011;10181;48.072;9.884;2023-04-30T15:13:35;11.37;;;10.87;;
20040;SDS011;10181;48.072;9.884;2023-04-30T15:16:01;21.07;;;20.23;;
20040;SDS011;10181;48.072;9.884;2023-04-30T15:18:27;18.47;;;17.80;;